OOCL Hamburg — VRZK9 — position and weather

sailwx.info

Track history (hours):
 
Tides and Currents Weather Stations Pressure Air Temp Water Temp Dewpoint Dewpoint Depression Visibility Wind Speed Wind Dir Waves Ship Positions

OOCL Hamburg

Last reported at 2016-May-02 09:33 UTC. Time now 2016-May-06 11:13 UTC.
Position N 36°21' E 014°52'.

Length 323 m; beam 42.8 m; draft 14.5 m.

Type: Cargo ship. MMSI: 477702000.

Date/timePositionNaut miles runAvg speedWind from/ knotsBaromVisibWave heightAir tempDewpointWater temp
2016-May-02 09:33N 36°21' E 014°52'1717.2
2016-May-02 08:33N 36°26' E 014°32'1717.3
2016-May-02 07:33N 36°32' E 014°11'1717.3
2016-May-02 06:33N 36°37' E 013°51'1717.1
2016-May-02 05:33N 36°43' E 013°31'  
2016-Apr-29 23:32N 36°01' W 005°08'1818.7
2016-Apr-29 22:34N 35°57' W 005°30'47316.6
2016-Apr-28 18:00N 37°42' W 015°06'53616.3 060 / 231021.5 5.4 1.018.011.2
2016-Apr-27 09:12N 39°47' W 026°14'7516.1
2016-Apr-27 04:31N 40°00' W 027°51'3216.3
2016-Apr-27 02:33N 40°05' W 028°32'1616.5
2016-Apr-27 01:33N 40°08' W 028°53'1916.3
2016-Apr-27 00:23N 40°10' W 029°18'1316.0
2016-Apr-26 23:33N 40°12' W 029°35'1616.1
2016-Apr-26 22:33N 40°14' W 029°56'1916.1
2016-Apr-26 21:22N 40°17' W 030°21'  
Track history (hours):
 
Tides and Currents Weather Stations Pressure Air Temp Water Temp Dewpoint Dewpoint Depression Visibility Wind Speed Wind Dir Waves Ship Positions

OOCL Hamburg

Last reported at 2016-May-02 09:33 UTC. Time now 2016-May-06 11:13 UTC.
Position N 36°21' E 014°52'.

Length 323 m; beam 42.8 m; draft 14.5 m.

Type: Cargo ship. MMSI: 477702000.

Date/timePositionNaut miles runAvg speedWind from/ knotsBaromVisibWave heightAir tempDewpointWater temp
2016-May-02 09:33N 36°21' E 014°52'1717.2
2016-May-02 08:33N 36°26' E 014°32'1717.3
2016-May-02 07:33N 36°32' E 014°11'1717.3
2016-May-02 06:33N 36°37' E 013°51'1717.1
2016-May-02 05:33N 36°43' E 013°31'  
2016-Apr-29 23:32N 36°01' W 005°08'1818.7
2016-Apr-29 22:34N 35°57' W 005°30'47316.6
2016-Apr-28 18:00N 37°42' W 015°06'53616.3 060 / 231021.5 5.4 1.018.011.2
2016-Apr-27 09:12N 39°47' W 026°14'7516.1
2016-Apr-27 04:31N 40°00' W 027°51'3216.3
2016-Apr-27 02:33N 40°05' W 028°32'1616.5
2016-Apr-27 01:33N 40°08' W 028°53'1916.3
2016-Apr-27 00:23N 40°10' W 029°18'1316.0
2016-Apr-26 23:33N 40°12' W 029°35'1616.1
2016-Apr-26 22:33N 40°14' W 029°56'1916.1
2016-Apr-26 21:22N 40°17' W 030°21'  

Dump ship's entire track history